createdAt,value
2019-02-11T00:01:11.986Z,8.07
2019-02-11T00:03:41.238Z,7.30
2019-02-11T00:06:10.548Z,7.80
2019-02-11T00:08:39.788Z,6.20
2019-02-11T00:11:09.025Z,7.07
2019-02-11T00:13:38.274Z,7.00
2019-02-11T00:16:07.576Z,6.67
2019-02-11T00:18:36.827Z,6.13
2019-02-11T00:21:06.078Z,4.87
2019-02-11T00:23:35.324Z,5.47
2019-02-11T00:26:04.618Z,6.00
2019-02-11T00:28:33.914Z,5.20
2019-02-11T00:31:03.192Z,5.27
2019-02-11T00:33:32.484Z,5.80
2019-02-11T00:36:01.746Z,4.53
2019-02-11T00:38:31.004Z,5.60
2019-02-11T00:41:00.281Z,5.00
2019-02-11T00:43:29.527Z,5.20
2019-02-11T00:45:58.754Z,5.40
2019-02-11T00:48:28.004Z,4.80
2019-02-11T00:50:57.339Z,3.80
2019-02-11T00:53:26.593Z,3.50
2019-02-11T00:55:55.922Z,3.37
2019-02-11T00:58:25.233Z,2.73
2019-02-11T01:00:54.632Z,3.10
2019-02-11T01:03:23.925Z,3.50
2019-02-11T01:05:53.216Z,3.53
2019-02-11T01:08:22.586Z,3.00
2019-02-11T01:10:51.843Z,2.73
2019-02-11T01:13:27.442Z,2.53
2019-02-11T01:15:50.383Z,2.57
2019-02-11T01:18:19.638Z,2.60
2019-02-11T01:20:48.927Z,2.90
2019-02-11T01:23:18.184Z,3.20
2019-02-11T01:25:47.506Z,3.93
2019-02-11T01:28:16.819Z,2.90
2019-02-11T01:30:46.136Z,3.17
2019-02-11T01:33:15.450Z,3.13
2019-02-11T01:35:44.742Z,3.87
2019-02-11T01:38:13.994Z,2.00
2019-02-11T01:40:43.254Z,3.27
2019-02-11T01:43:12.487Z,3.50
2019-02-11T01:45:41.806Z,3.10
2019-02-11T01:48:11.044Z,2.60
2019-02-11T01:50:40.383Z,2.33
2019-02-11T01:53:09.648Z,3.23
2019-02-11T01:55:38.991Z,2.60
2019-02-11T01:58:08.268Z,2.60
2019-02-11T02:00:37.582Z,3.30
2019-02-11T02:03:06.851Z,5.17
2019-02-11T02:05:36.228Z,4.37
2019-02-11T02:08:05.482Z,3.67
2019-02-11T02:10:34.776Z,4.00
2019-02-11T02:13:04.076Z,3.17
2019-02-11T02:15:33.421Z,4.43
2019-02-11T02:18:02.632Z,3.47
2019-02-11T02:20:31.912Z,2.93
2019-02-11T02:23:01.163Z,3.40
2019-02-11T02:25:30.438Z,3.23
2019-02-11T02:27:59.775Z,3.93
2019-02-11T02:30:29.731Z,3.83
2019-02-11T02:32:58.953Z,3.70
2019-02-11T02:35:28.315Z,4.23
2019-02-11T02:37:57.714Z,2.77
2019-02-11T02:40:26.981Z,3.80
2019-02-11T02:42:56.282Z,4.90
2019-02-11T02:45:25.550Z,4.37
2019-02-11T02:47:54.798Z,3.90
2019-02-11T02:50:24.220Z,3.73
2019-02-11T02:52:53.486Z,3.93
2019-02-11T02:55:22.825Z,3.67
2019-02-11T02:57:52.199Z,3.50
2019-02-11T03:00:21.504Z,4.90
2019-02-11T03:02:50.858Z,4.73
2019-02-11T03:05:20.105Z,3.53
2019-02-11T03:07:49.423Z,4.53
2019-02-11T03:10:18.663Z,5.10
2019-02-11T03:12:47.913Z,3.10
2019-02-11T03:15:17.207Z,5.63
2019-02-11T03:17:46.520Z,3.90
2019-02-11T03:20:15.827Z,4.17
2019-02-11T03:22:45.077Z,3.93
2019-02-11T03:25:14.356Z,3.17
2019-02-11T03:27:43.732Z,4.03
2019-02-11T03:30:13.141Z,4.17
2019-02-11T03:32:42.436Z,2.60
2019-02-11T03:35:11.820Z,3.27
2019-02-11T03:37:41.120Z,3.83
2019-02-11T03:40:10.396Z,3.27
2019-02-11T03:42:39.742Z,2.87
2019-02-11T03:45:09.752Z,3.53
2019-02-11T03:47:38.995Z,2.73
2019-02-11T03:50:08.848Z,2.77
2019-02-11T03:52:38.087Z,2.53
2019-02-11T03:55:07.387Z,2.57
2019-02-11T03:57:36.650Z,2.30
2019-02-11T04:00:06.709Z,2.10
2019-02-11T04:02:35.957Z,3.93
2019-02-11T04:05:05.900Z,2.50
2019-02-11T04:07:35.187Z,2.67
2019-02-11T04:10:05.211Z,2.10
2019-02-11T04:12:34.465Z,1.90
2019-02-11T04:15:03.931Z,1.90
2019-02-11T04:17:33.235Z,2.13
2019-02-11T04:20:02.705Z,2.93
2019-02-11T04:22:31.993Z,1.90
2019-02-11T04:25:01.254Z,2.00
2019-02-11T04:27:30.486Z,2.53
2019-02-11T04:29:59.823Z,2.30
2019-02-11T04:32:29.107Z,2.67
2019-02-11T04:34:58.387Z,2.53
2019-02-11T04:37:27.693Z,3.40
2019-02-11T04:39:57.049Z,2.00
2019-02-11T04:42:26.286Z,2.80
2019-02-11T04:44:55.563Z,2.53
2019-02-11T04:47:24.826Z,2.40
2019-02-11T04:49:54.167Z,2.00
2019-02-11T04:52:23.530Z,2.43
2019-02-11T04:54:52.824Z,3.07
2019-02-11T04:57:22.209Z,2.50
2019-02-11T04:59:51.491Z,2.30
2019-02-11T05:02:20.745Z,2.00
2019-02-11T05:04:50.046Z,1.80
2019-02-11T05:07:19.286Z,2.00
2019-02-11T05:09:48.616Z,2.17
2019-02-11T05:12:17.854Z,2.40
2019-02-11T05:14:47.122Z,1.60
2019-02-11T05:17:16.393Z,2.27
2019-02-11T05:19:45.722Z,2.37
2019-02-11T05:22:14.944Z,1.80
2019-02-11T05:24:44.209Z,2.07
2019-02-11T05:27:13.495Z,2.27
2019-02-11T05:29:42.786Z,2.17
2019-02-11T05:32:12.038Z,2.20
2019-02-11T05:34:41.311Z,1.83
2019-02-11T05:37:10.598Z,1.97
2019-02-11T05:39:39.914Z,2.03
2019-02-11T05:42:09.164Z,1.73
2019-02-11T05:44:38.455Z,2.27
2019-02-11T05:47:07.677Z,1.90
2019-02-11T05:49:36.971Z,1.93
2019-02-11T05:52:06.211Z,1.13
2019-02-11T05:54:35.602Z,1.83
2019-02-11T05:57:04.920Z,3.07
2019-02-11T05:59:34.220Z,2.00
2019-02-11T06:02:03.535Z,2.17
2019-02-11T06:04:33.098Z,2.20
2019-02-11T06:07:02.599Z,2.20
2019-02-11T06:09:31.872Z,2.87
2019-02-11T06:12:01.141Z,2.27
2019-02-11T06:14:30.456Z,1.60
2019-02-11T06:16:59.751Z,1.97
2019-02-11T06:19:29.115Z,1.80
2019-02-11T06:21:58.405Z,1.43
2019-02-11T06:24:27.739Z,2.37
2019-02-11T06:26:57.070Z,2.20
2019-02-11T06:29:26.453Z,2.27
2019-02-11T06:31:55.725Z,2.20
2019-02-11T06:34:25.111Z,1.83
2019-02-11T06:36:54.370Z,1.70
2019-02-11T06:39:23.700Z,1.60
2019-02-11T06:41:53.024Z,1.77
2019-02-11T06:44:22.682Z,1.93
2019-02-11T06:46:51.924Z,1.60
2019-02-11T06:49:21.438Z,2.07
2019-02-11T06:51:50.724Z,2.17
2019-02-11T06:54:20.231Z,2.50
2019-02-11T06:56:49.604Z,2.03
2019-02-11T06:59:19.132Z,2.30
2019-02-11T07:01:48.383Z,1.67
2019-02-11T07:04:17.691Z,2.00
2019-02-11T07:06:46.979Z,2.17
2019-02-11T07:09:16.240Z,2.47
2019-02-11T07:11:45.581Z,2.00
2019-02-11T07:14:14.897Z,2.10
2019-02-11T07:16:44.184Z,1.60
2019-02-11T07:19:13.476Z,1.70
2019-02-11T07:21:42.740Z,2.10
2019-02-11T07:24:12.003Z,2.57
2019-02-11T07:26:41.313Z,2.20
2019-02-11T07:29:10.585Z,2.53
2019-02-11T07:31:39.854Z,1.67
2019-02-11T07:34:09.199Z,1.50
2019-02-11T07:36:38.484Z,2.13
2019-02-11T07:39:09.376Z,2.40
2019-02-11T07:42:00.739Z,1.70
2019-02-11T07:44:34.958Z,2.03
2019-02-11T07:47:04.743Z,1.93
2019-02-11T07:49:33.998Z,2.07
2019-02-11T07:52:03.271Z,2.40
2019-02-11T07:54:32.575Z,2.30
2019-02-11T07:57:01.866Z,1.93
2019-02-11T07:59:31.157Z,1.80
2019-02-11T08:02:00.390Z,1.87
2019-02-11T08:04:29.798Z,1.63
2019-02-11T08:06:59.145Z,1.97
2019-02-11T08:09:28.498Z,1.73
2019-02-11T08:11:58.030Z,1.63
2019-02-11T08:14:27.304Z,2.40
2019-02-11T08:16:56.593Z,2.53
2019-02-11T08:19:25.951Z,2.53
2019-02-11T08:21:55.217Z,2.30
2019-02-11T08:24:24.462Z,3.10
2019-02-11T08:26:53.759Z,2.33
2019-02-11T08:29:23.042Z,3.07
2019-02-11T08:31:52.288Z,3.50
2019-02-11T08:34:21.586Z,3.83
2019-02-11T08:36:50.900Z,3.67
2019-02-11T08:39:20.167Z,4.13
2019-02-11T08:41:49.479Z,3.70
2019-02-11T08:44:18.745Z,4.70
2019-02-11T08:46:48.029Z,3.47
2019-02-11T08:49:17.357Z,4.53
2019-02-11T08:51:46.671Z,5.07
2019-02-11T08:54:15.964Z,5.13
2019-02-11T08:56:45.353Z,4.60
2019-02-11T08:59:14.638Z,5.13
2019-02-11T09:01:43.862Z,5.40
2019-02-11T09:04:18.779Z,4.60
2019-02-11T09:06:42.559Z,4.37
2019-02-11T09:09:11.842Z,4.57
2019-02-11T09:11:41.084Z,5.63
2019-02-11T09:14:10.382Z,4.47
2019-02-11T09:16:39.783Z,4.10
2019-02-11T09:19:09.115Z,5.47
2019-02-11T09:21:38.446Z,4.47
2019-02-11T09:24:07.709Z,3.87
2019-02-11T09:26:37.110Z,4.60
2019-02-11T09:29:06.391Z,4.80
2019-02-11T09:31:35.781Z,4.20
2019-02-11T09:34:05.079Z,3.57
2019-02-11T09:36:34.392Z,3.33
2019-02-11T09:39:03.855Z,3.57
2019-02-11T09:41:33.101Z,3.93
2019-02-11T09:44:02.430Z,3.77
2019-02-11T09:46:31.702Z,3.83
2019-02-11T09:49:00.986Z,3.43
2019-02-11T09:51:30.756Z,3.87
2019-02-11T09:54:00.118Z,5.20
2019-02-11T09:56:29.487Z,4.30
2019-02-11T09:58:58.810Z,4.40
2019-02-11T10:01:28.228Z,3.77
2019-02-11T10:03:57.498Z,4.30
2019-02-11T10:06:26.888Z,3.60
2019-02-11T10:08:56.185Z,2.93
2019-02-11T10:11:25.484Z,2.67
2019-02-11T10:13:54.827Z,3.30
2019-02-11T10:16:24.198Z,3.40
2019-02-11T10:18:53.461Z,3.17
2019-02-11T10:21:22.800Z,3.63
2019-02-11T10:23:52.060Z,3.40
2019-02-11T10:26:21.362Z,2.93
2019-02-11T10:28:50.708Z,3.53
2019-02-11T10:31:20.006Z,3.80
2019-02-11T10:33:49.274Z,2.57
2019-02-11T10:36:18.758Z,3.33
2019-02-11T10:38:48.116Z,2.93
2019-02-11T10:41:17.747Z,3.07
2019-02-11T10:43:47.032Z,3.23
2019-02-11T10:46:21.103Z,2.37
2019-02-11T10:48:45.724Z,3.27
2019-02-11T10:51:15.010Z,3.03
2019-02-11T10:53:44.298Z,3.00
2019-02-11T10:56:13.563Z,2.60
2019-02-11T10:58:42.944Z,2.80
2019-02-11T11:01:13.405Z,3.83
2019-02-11T11:03:41.593Z,2.83
2019-02-11T11:06:10.938Z,3.30
2019-02-11T11:08:40.323Z,3.23
2019-02-11T11:11:09.660Z,2.60
2019-02-11T11:13:38.978Z,3.37
2019-02-11T11:16:08.293Z,2.10
2019-02-11T11:18:37.645Z,2.43
2019-02-11T11:21:07.047Z,1.97
2019-02-11T11:23:36.369Z,2.90
2019-02-11T11:26:05.679Z,3.30
2019-02-11T11:28:34.975Z,3.30
2019-02-11T11:31:04.230Z,2.70
2019-02-11T11:33:33.549Z,3.43
2019-02-11T11:36:02.881Z,3.10
2019-02-11T11:38:32.154Z,2.87
2019-02-11T11:41:01.612Z,2.33
2019-02-11T11:43:30.968Z,2.30
2019-02-11T11:46:00.273Z,2.83
2019-02-11T11:48:29.567Z,3.03
2019-02-11T11:50:58.883Z,1.70
2019-02-11T11:53:28.123Z,2.07
2019-02-11T11:56:01.950Z,2.63
2019-02-11T11:58:27.286Z,3.33
2019-02-11T12:00:56.181Z,2.80
2019-02-11T12:03:25.331Z,3.43
2019-02-11T12:05:54.673Z,3.03
2019-02-11T12:08:24.092Z,3.43
2019-02-11T12:10:53.441Z,2.67
2019-02-11T12:13:23.636Z,2.63
2019-02-11T12:15:52.095Z,2.57
2019-02-11T12:18:21.385Z,3.20
2019-02-11T12:20:50.705Z,2.77
2019-02-11T12:23:20.129Z,2.83
2019-02-11T12:25:49.271Z,2.93
2019-02-11T12:28:18.698Z,3.37
2019-02-11T12:30:48.019Z,2.90
2019-02-11T12:33:17.416Z,2.70
2019-02-11T12:35:46.691Z,2.30
2019-02-11T12:38:16.088Z,2.10
2019-02-11T12:40:45.459Z,2.63
2019-02-11T12:43:14.723Z,2.83
2019-02-11T12:45:44.134Z,2.37
2019-02-11T12:48:13.442Z,1.70
2019-02-11T12:50:42.719Z,1.60
2019-02-11T12:53:12.019Z,2.60
2019-02-11T12:55:41.270Z,1.80
2019-02-11T12:58:10.581Z,2.50
2019-02-11T13:00:39.911Z,1.93
2019-02-11T13:03:09.186Z,2.67
2019-02-11T13:05:44.775Z,2.63
2019-02-11T13:08:07.944Z,2.83
2019-02-11T13:10:37.237Z,2.40
2019-02-11T13:13:07.307Z,2.33
2019-02-11T13:15:58.758Z,2.27
2019-02-11T13:18:05.187Z,3.80
2019-02-11T13:20:34.538Z,2.63
2019-02-11T13:23:03.879Z,2.67
2019-02-11T13:25:33.290Z,2.70
2019-02-11T13:28:02.708Z,3.10
2019-02-11T13:30:32.146Z,2.67
2019-02-11T13:33:01.380Z,3.07
2019-02-11T13:35:30.666Z,2.67
2019-02-11T13:37:59.939Z,2.03
2019-02-11T13:40:29.316Z,3.23
2019-02-11T13:43:05.209Z,3.33
2019-02-11T13:45:34.548Z,2.43
2019-02-11T13:48:04.012Z,3.13
2019-02-11T13:50:33.380Z,2.83
2019-02-11T13:53:02.703Z,3.13
2019-02-11T13:55:32.286Z,3.13
2019-02-11T13:58:01.420Z,3.63
2019-02-11T14:00:34.467Z,3.77
2019-02-11T14:03:05.217Z,3.40
2019-02-11T14:05:34.724Z,2.73
2019-02-11T14:08:04.088Z,3.67
2019-02-11T14:10:33.380Z,3.60
2019-02-11T14:13:05.674Z,2.07
2019-02-11T14:15:35.680Z,3.13
2019-02-11T14:18:14.826Z,3.27
2019-02-11T14:20:42.237Z,3.57
2019-02-11T14:23:11.650Z,2.93
2019-02-11T14:25:45.906Z,3.07
2019-02-11T14:28:10.377Z,2.53
2019-02-11T14:30:40.481Z,3.37
2019-02-11T14:33:09.770Z,2.93
2019-02-11T14:35:39.195Z,2.93
2019-02-11T14:38:08.479Z,3.07
2019-02-11T14:40:37.898Z,3.60
2019-02-11T14:43:07.133Z,2.73
2019-02-11T14:45:36.443Z,1.73
2019-02-11T14:48:05.866Z,2.70
2019-02-11T14:50:35.266Z,3.00
2019-02-11T14:53:04.648Z,2.70
2019-02-11T14:55:34.330Z,2.80
2019-02-11T14:58:03.704Z,3.47
2019-02-11T15:00:33.071Z,3.93
2019-02-11T15:03:02.408Z,3.67
2019-02-11T15:05:31.792Z,3.40
2019-02-11T15:08:01.048Z,3.57
2019-02-11T15:10:30.399Z,3.97
2019-02-11T15:12:59.726Z,3.57
2019-02-11T15:15:29.310Z,3.97
2019-02-11T15:17:58.810Z,3.50
2019-02-11T15:20:28.236Z,2.77
2019-02-11T15:22:57.505Z,3.77
2019-02-11T15:25:26.797Z,3.90
2019-02-11T15:27:56.093Z,3.03
2019-02-11T15:30:25.436Z,2.90
2019-02-11T15:32:54.767Z,3.57
2019-02-11T15:35:24.093Z,3.53
2019-02-11T15:37:53.376Z,3.37
2019-02-11T15:40:23.117Z,3.23
2019-02-11T15:42:52.387Z,3.10
2019-02-11T15:45:21.682Z,3.13
2019-02-11T15:47:51.045Z,3.23
2019-02-11T15:50:20.381Z,3.00
2019-02-11T15:52:49.714Z,3.57
2019-02-11T15:55:19.304Z,3.10
2019-02-11T15:57:48.643Z,3.00
2019-02-11T16:00:19.665Z,3.57
2019-02-11T16:02:48.998Z,3.83
2019-02-11T16:05:18.317Z,3.57
2019-02-11T16:07:47.686Z,3.83
2019-02-11T16:10:19.026Z,2.73
2019-02-11T16:12:48.316Z,4.03
2019-02-11T16:15:19.209Z,3.17
2019-02-11T16:17:46.833Z,3.80
2019-02-11T16:20:16.089Z,3.33
2019-02-11T16:22:45.445Z,3.43
2019-02-11T16:25:14.751Z,3.37
2019-02-11T16:27:44.172Z,4.13
2019-02-11T16:30:15.365Z,3.70
2019-02-11T16:32:44.726Z,3.50
2019-02-11T16:35:14.793Z,3.43
2019-02-11T16:37:44.085Z,3.53
2019-02-11T16:40:16.085Z,3.70
2019-02-11T16:42:45.352Z,3.87
2019-02-11T16:45:14.633Z,3.60
2019-02-11T16:47:43.985Z,3.40
2019-02-11T16:50:13.266Z,3.13
2019-02-11T16:52:42.668Z,3.80
2019-02-11T16:55:11.960Z,2.20
2019-02-11T16:57:41.229Z,3.00
2019-02-11T17:00:12.743Z,3.50
2019-02-11T17:02:42.031Z,2.27
2019-02-11T17:05:11.347Z,2.80
2019-02-11T17:07:42.210Z,4.00
2019-02-11T17:10:10.867Z,2.90
2019-02-11T17:12:40.163Z,3.73
2019-02-11T17:15:11.613Z,3.83
2019-02-11T17:17:40.909Z,3.37
2019-02-11T17:20:11.036Z,3.17
2019-02-11T17:22:40.278Z,2.87
2019-02-11T17:25:09.816Z,3.43
2019-02-11T17:27:39.173Z,3.67
2019-02-11T17:30:11.513Z,3.83
2019-02-11T17:32:40.811Z,3.07
2019-02-11T17:35:10.225Z,2.50
2019-02-11T17:37:39.517Z,3.30
2019-02-11T17:40:11.631Z,2.10
2019-02-11T17:42:39.039Z,2.47
2019-02-11T17:45:12.367Z,2.67
2019-02-11T17:47:41.647Z,2.80
2019-02-11T17:50:11.252Z,2.23
2019-02-11T17:52:40.537Z,3.03
2019-02-11T17:55:10.657Z,4.00
2019-02-11T17:57:39.979Z,2.33
2019-02-11T18:00:12.751Z,3.10
2019-02-11T18:02:42.061Z,2.73
2019-02-11T18:05:11.339Z,2.33
2019-02-11T18:07:40.585Z,3.47
2019-02-11T18:10:09.836Z,2.80
2019-02-11T18:12:39.180Z,3.57
2019-02-11T18:15:08.809Z,2.47
2019-02-11T18:17:38.077Z,2.93
2019-02-11T18:20:07.482Z,2.57
2019-02-11T18:22:36.790Z,3.40
2019-02-11T18:25:06.157Z,3.63
2019-02-11T18:27:35.524Z,2.60
2019-02-11T18:30:05.059Z,4.47
2019-02-11T18:32:34.393Z,2.93
2019-02-11T18:35:03.775Z,2.80
2019-02-11T18:37:33.069Z,3.47
2019-02-11T18:40:02.378Z,2.47
2019-02-11T18:42:31.711Z,3.23
2019-02-11T18:45:01.018Z,3.57
2019-02-11T18:47:30.281Z,2.70
2019-02-11T18:49:59.513Z,2.10
2019-02-11T18:52:28.809Z,2.43
2019-02-11T18:54:58.081Z,2.67
2019-02-11T18:57:27.392Z,3.97
2019-02-11T18:59:56.709Z,5.23
2019-02-11T19:02:25.985Z,4.00
2019-02-11T19:04:55.303Z,2.90
2019-02-11T19:07:24.582Z,3.00
2019-02-11T19:09:53.898Z,2.37
2019-02-11T19:12:23.127Z,1.73
2019-02-11T19:14:52.379Z,3.20
2019-02-11T19:17:21.813Z,2.93
2019-02-11T19:19:51.105Z,2.83
2019-02-11T19:22:22.293Z,2.70
2019-02-11T19:24:49.908Z,1.70
2019-02-11T19:27:19.161Z,2.53
2019-02-11T19:29:48.443Z,2.40
2019-02-11T19:32:17.714Z,2.73
2019-02-11T19:34:47.156Z,2.80
2019-02-11T19:37:16.404Z,2.10
2019-02-11T19:39:45.669Z,2.23
2019-02-11T19:42:15.000Z,3.13
2019-02-11T19:44:44.283Z,2.70
2019-02-11T19:47:32.877Z,2.50
2019-02-11T19:50:02.092Z,2.20
2019-02-11T19:52:31.383Z,2.33
2019-02-11T19:55:00.671Z,2.00
2019-02-11T19:57:29.955Z,2.43
2019-02-11T19:59:59.428Z,2.60
2019-02-11T20:02:29.608Z,2.20
2019-02-11T20:04:58.949Z,2.57
2019-02-11T20:07:28.397Z,1.63
2019-02-11T20:09:57.707Z,1.43
2019-02-11T20:12:27.117Z,1.90
2019-02-11T20:14:59.938Z,2.00
2019-02-11T20:17:29.318Z,2.10
2019-02-11T20:20:00.361Z,1.93
2019-02-11T20:22:27.922Z,2.60
2019-02-11T20:24:57.290Z,2.60
2019-02-11T20:27:26.613Z,2.53
2019-02-11T20:29:55.836Z,2.00
2019-02-11T20:32:25.451Z,3.07
2019-02-11T20:34:54.825Z,2.37
2019-02-11T20:37:24.067Z,2.07
2019-02-11T20:39:53.286Z,2.23
2019-02-11T20:42:24.403Z,2.50
2019-02-11T20:44:53.737Z,2.20
2019-02-11T20:47:22.960Z,1.77
2019-02-11T20:49:52.201Z,2.03
2019-02-11T20:52:21.449Z,1.40
2019-02-11T20:54:50.736Z,1.60
2019-02-11T20:57:20.057Z,1.73
2019-02-11T20:59:49.463Z,2.10
2019-02-11T21:02:18.538Z,1.73
2019-02-11T21:04:47.938Z,1.83
2019-02-11T21:07:17.247Z,2.00
2019-02-11T21:09:46.755Z,2.77
2019-02-11T21:12:16.096Z,2.07
2019-02-11T21:14:45.335Z,1.30
2019-02-11T21:17:14.571Z,1.10
2019-02-11T21:19:43.849Z,1.77
2019-02-11T21:22:13.119Z,1.80
2019-02-11T21:24:42.329Z,1.90
2019-02-11T21:27:12.023Z,1.77
2019-02-11T21:29:41.253Z,1.43
2019-02-11T21:32:10.619Z,1.80
2019-02-11T21:34:43.679Z,1.93
2019-02-11T21:37:12.980Z,1.87
2019-02-11T21:39:42.232Z,1.90
2019-02-11T21:42:11.582Z,1.40
2019-02-11T21:44:40.859Z,2.17
2019-02-11T21:47:10.094Z,2.30
2019-02-11T21:49:39.353Z,1.90
2019-02-11T21:52:08.665Z,1.70
2019-02-11T21:54:37.921Z,2.30
2019-02-11T21:57:26.728Z,1.97
2019-02-11T21:59:55.981Z,2.13
2019-02-11T22:02:25.326Z,1.93
2019-02-11T22:04:54.635Z,1.73
2019-02-11T22:07:23.928Z,2.07
2019-02-11T22:09:53.234Z,1.77
2019-02-11T22:12:22.461Z,1.50
2019-02-11T22:14:51.759Z,1.50
2019-02-11T22:17:21.003Z,2.30
2019-02-11T22:19:50.243Z,1.90
2019-02-11T22:22:19.533Z,1.63
2019-02-11T22:24:48.791Z,1.43
2019-02-11T22:27:18.037Z,1.37
2019-02-11T22:29:47.337Z,1.70
2019-02-11T22:32:16.638Z,1.97
2019-02-11T22:34:45.943Z,1.90
2019-02-11T22:37:15.183Z,1.83
2019-02-11T22:39:44.377Z,1.33
2019-02-11T22:42:13.649Z,1.80
2019-02-11T22:44:42.941Z,1.80
2019-02-11T22:47:12.247Z,1.40
2019-02-11T22:49:41.634Z,1.97
2019-02-11T22:52:10.881Z,1.40
2019-02-11T22:54:40.235Z,2.23
2019-02-11T22:57:09.541Z,2.03
2019-02-11T22:59:38.790Z,1.90
2019-02-11T23:02:08.028Z,1.87
2019-02-11T23:04:37.329Z,1.90
2019-02-11T23:07:06.574Z,1.57
2019-02-11T23:09:35.807Z,1.57
2019-02-11T23:12:05.080Z,1.57
2019-02-11T23:14:34.341Z,1.50
2019-02-11T23:17:03.651Z,1.43
2019-02-11T23:19:32.937Z,1.17
2019-02-11T23:22:02.162Z,1.50
2019-02-11T23:24:31.412Z,1.47
2019-02-11T23:27:00.753Z,1.93
2019-02-11T23:29:30.053Z,1.50
2019-02-11T23:31:59.289Z,2.00
2019-02-11T23:34:28.547Z,1.63
2019-02-11T23:36:57.803Z,1.23
2019-02-11T23:39:27.242Z,1.33
2019-02-11T23:41:56.540Z,1.30
2019-02-11T23:44:25.837Z,1.23
2019-02-11T23:46:55.060Z,1.50
2019-02-11T23:49:24.390Z,0.90
2019-02-11T23:51:53.629Z,1.20
2019-02-11T23:54:23.007Z,0.93
2019-02-11T23:56:52.243Z,1.37
2019-02-11T23:59:21.593Z,1.43
